18 Novembre 2012 - 1/2 Brouillard sur la gare d'Entzheim (Bas-Rhin)
Suivante Précédente
+ Commentaires 18 Novembre 2012 - 1/2 Brouillard sur la gare d'Entzheim (Bas-Rhin)
Pour les pilotes d'avions, le METAR et le TAF du...

Dimanche 18 Novembre 2012 à 10H06 UTC

Niveau de vol maxi : 50

LFST STRASBOURG-ENTZHEIM

METAR: LFST 181000Z AUTO VRB01KT 0200 0150 R23/0375V0500N R05/0400V0600N FG VV/// 05/05 Q1013=

TAF LONG: LFST 180500Z 1806/1906 VRB03KT 0100 FG VV/// BECMG 1808/1812 9999 NSW BKN030 TEMPO 1900/1906 0100 FG VV///=

J'ai "développé" cette photo avec le logiciel DxO FilmPack qui a "simulé" la pellicule argentique KODAK BW 400CN.







266
  • Pour m'ecrire...